KMRC

Maury County Airport

Columbia/Mount Pleasant, Tennessee, USA
METAR KMRC 210415Z AUTO 19009KT 10SM OVC080 13/02 A3015 RMK A01
Observed Flight Rules
Jan-21 @ 04:15 UTC (33 minutes ago) Visual Flight Rules
Wind Visibility Clouds
190° at 9 knots 10 miles
  • Overcast at 8,000' AGL
Temperatures Readings
Current 13°C / 55°F
Dewpoint 2°C / 36°F
Humidity 47%
Altimeter 30.15" Hg
Pressure 1021 hPa
Elevation 208
METAR KMRC 210415Z AUTO 19009KT 10SM OVC080 13/02 A3015 RMK A01
Observed Flight Rules
Jan-21 @ 04:15 UTC
(33 minutes ago)
VFR
Wind Visibility
190° at 9 knots 10 miles
Clouds
  • Overcast at 8,000' AGL
Temperature Dewpoint
13°C / 55°F 2°C / 36°F
Humidity Altimeter Pressure
47% 30.15" Hg 1021 hPa